T/t Zenji — ZCXH2 — position and weather

sailwx.info

Track history (hours):
 
Tides and Currents Weather Stations Pressure Air Temp Water Temp Dewpoint Dewpoint Depression Visibility Wind Speed Wind Dir Waves Ship Positions

T/t Zenji

Last reported at 2016-Feb-14 20:28 UTC. Time now 2016-Feb-14 21:07 UTC.
Position N 18°31' W 064°25'.

Length 13 m.

Type: Pleasure craft. MMSI: 235007190.

Date/timePositionNaut miles runAvg speedWind from/ knotsBaromVisibWave heightAir tempDewpointWater temp
2016-Feb-14 20:28N 18°31' W 064°25'4 1.0
2016-Feb-14 16:20N 18°27' W 064°27'0 0.0
2016-Feb-14 15:14N 18°27' W 064°27'0 0.0
2016-Feb-14 12:26N 18°27' W 064°27'0 0.0
2016-Feb-14 11:32N 18°27' W 064°27'0 0.0
2016-Feb-14 10:12N 18°27' W 064°27'0 0.0
2016-Feb-14 09:24N 18°27' W 064°27'0 0.0
2016-Feb-14 07:06N 18°27' W 064°27'0 0.0
2016-Feb-14 06:30N 18°27' W 064°27'0 0.0
2016-Feb-14 02:30N 18°27' W 064°27'0 0.0
2016-Feb-14 00:24N 18°27' W 064°27'0 0.0
2016-Feb-13 23:24N 18°27' W 064°27'0 0.0
2016-Feb-13 22:33N 18°27' W 064°27'2 2.1
2016-Feb-13 21:33N 18°26' W 064°29'4 4.1
2016-Feb-13 20:33N 18°23' W 064°31'0 0.0
2016-Feb-13 19:31N 18°23' W 064°31'0 0.0
2016-Feb-13 18:31N 18°23' W 064°31'0 0.0
2016-Feb-13 17:25N 18°23' W 064°31'2 1.8
2016-Feb-13 16:33N 18°23' W 064°32'6 5.2
2016-Feb-13 15:21N 18°27' W 064°27'0 0.2
2016-Feb-13 14:04N 18°27' W 064°27'0 0.0
2016-Feb-13 11:16N 18°27' W 064°27'0 0.0
2016-Feb-13 09:16N 18°27' W 064°27'0 0.0
2016-Feb-13 08:22N 18°27' W 064°27'0 0.0
2016-Feb-13 02:20N 18°27' W 064°27'0 0.0
2016-Feb-13 01:26N 18°27' W 064°27'0 0.0
2016-Feb-12 23:08N 18°27' W 064°27'0 0.0
2016-Feb-12 22:26N 18°27' W 064°27'0 0.0
2016-Feb-12 17:07N 18°27' W 064°27'1 1.1
2016-Feb-12 16:28N 18°26' W 064°27'0 0.0
2016-Feb-12 15:16N 18°26' W 064°27'0 0.0
2016-Feb-12 14:28N 18°26' W 064°27'0 0.0
2016-Feb-12 13:28N 18°26' W 064°27'0 0.0
2016-Feb-12 12:28N 18°26' W 064°27'0 0.0
2016-Feb-12 11:28N 18°26' W 064°27'1 0.8
2016-Feb-12 10:28N 18°27' W 064°27'0 0.0
2016-Feb-12 07:16N 18°27' W 064°27'0 0.0
2016-Feb-12 06:22N 18°27' W 064°27'0 0.0
2016-Feb-12 04:33N 18°27' W 064°27'0 0.0
2016-Feb-12 03:31N 18°27' W 064°27'0 0.0
2016-Feb-12 02:33N 18°27' W 064°27'0 0.0
2016-Feb-12 01:32N 18°27' W 064°27'0 0.0
2016-Feb-12 00:33N 18°27' W 064°27'0 0.0
2016-Feb-11 23:33N 18°27' W 064°27'2 1.5
2016-Feb-11 22:33N 18°28' W 064°28'9 9.5
2016-Feb-11 21:33N 18°28' W 064°38'6 5.7
2016-Feb-11 20:33N 18°26' W 064°44'2 1.5
2016-Feb-11 19:30N 18°26' W 064°45'0 0.0
2016-Feb-11 18:30N 18°26' W 064°45'0 0.0
2016-Feb-11 17:33N 18°26' W 064°45'4 3.9
2016-Feb-11 16:33N 18°26' W 064°41'1310.2
2016-Feb-11 15:15N 18°27' W 064°27'0 0.1
2016-Feb-11 10:28N 18°27' W 064°27'0 0.0
2016-Feb-11 09:28N 18°27' W 064°27'0 0.0
2016-Feb-11 08:22N 18°27' W 064°27'0 0.0
2016-Feb-11 07:28N 18°27' W 064°27'0 0.0
2016-Feb-11 06:28N 18°27' W 064°27'0 0.0
2016-Feb-11 05:28N 18°27' W 064°27'0 0.0
2016-Feb-11 04:16N 18°27' W 064°27'0 0.0
2016-Feb-11 03:26N 18°27' W 064°27'0 0.0
2016-Feb-11 02:17N 18°27' W 064°27'0 0.0
2016-Feb-11 00:17N 18°27' W 064°27'0 0.0
2016-Feb-10 23:29N 18°27' W 064°27'0 0.0
2016-Feb-10 22:29N 18°27' W 064°27'0 0.0
2016-Feb-10 21:29N 18°27' W 064°27'0 0.0
2016-Feb-10 20:29N 18°27' W 064°27'0 0.0
2016-Feb-10 19:29N 18°27' W 064°27'0 0.0
2016-Feb-10 15:17N 18°27' W 064°27'0 0.0
2016-Feb-10 14:26N 18°27' W 064°27'0 0.0
2016-Feb-10 13:28N 18°27' W 064°27'0 0.0
2016-Feb-10 12:31N 18°27' W 064°27'1 0.7
2016-Feb-10 11:25N 18°26' W 064°27'0 0.0
2016-Feb-10 09:28N 18°26' W 064°27'0 0.0
2016-Feb-10 08:22N 18°26' W 064°27'0 0.0
2016-Feb-10 07:31N 18°26' W 064°27'0 0.0
2016-Feb-10 05:10N 18°26' W 064°27'0 0.0
2016-Feb-10 04:31N 18°26' W 064°27'0 0.0
2016-Feb-10 03:31N 18°26' W 064°27'0 0.0
2016-Feb-10 01:10N 18°26' W 064°27'0 0.0
2016-Feb-10 00:28N 18°26' W 064°27'0 0.0
2016-Feb-09 23:19N 18°26' W 064°27'0 0.0
2016-Feb-09 22:25N 18°26' W 064°27'0 0.0
2016-Feb-09 21:31N 18°26' W 064°27'0 0.0
2016-Feb-09 20:31N 18°26' W 064°27'0 0.0
2016-Feb-09 19:25N 18°26' W 064°27'0 0.0
2016-Feb-09 18:31N 18°26' W 064°27'0 0.0
2016-Feb-09 17:25N 18°26' W 064°27'0 0.0
2016-Feb-09 16:25N 18°26' W 064°27'0 0.0
2016-Feb-09 15:31N 18°26' W 064°27'0 0.0
2016-Feb-09 13:19N 18°26' W 064°27'1 0.1
2016-Feb-09 04:29N 18°27' W 064°27'0 0.0
2016-Feb-09 03:29N 18°27' W 064°27'0 0.0
2016-Feb-09 02:17N 18°27' W 064°27'0 0.0
2016-Feb-09 01:17N 18°27' W 064°27'0 0.0
2016-Feb-09 00:29N 18°27' W 064°27'0 0.0
2016-Feb-08 23:17N 18°27' W 064°27'0 0.0
2016-Feb-08 22:29N 18°27' W 064°27'0 0.0
2016-Feb-08 21:29N 18°27' W 064°27'1 0.8
2016-Feb-08 20:33N 18°26' W 064°27'0 0.0
2016-Feb-08 19:24N 18°26' W 064°27'0 0.0
2016-Feb-08 18:18N 18°26' W 064°27'0 0.0
2016-Feb-08 17:30N 18°26' W 064°27'0 0.0
2016-Feb-08 16:30N 18°26' W 064°27'0 0.0
2016-Feb-08 15:30N 18°26' W 064°27'0 0.0
2016-Feb-08 14:30N 18°26' W 064°27'0 0.0
2016-Feb-08 13:33N 18°26' W 064°27'1 0.6
2016-Feb-08 12:18N 18°27' W 064°27'0 0.0
2016-Feb-08 07:18N 18°27' W 064°27'0 0.0
2016-Feb-08 03:30N 18°27' W 064°27'0 0.0
2016-Feb-08 02:30N 18°27' W 064°27'0 0.0
2016-Feb-08 01:18N 18°27' W 064°27'4 4.8
2016-Feb-08 00:27N 18°23' W 064°27'  
Track history (hours):
 
Tides and Currents Weather Stations Pressure Air Temp Water Temp Dewpoint Dewpoint Depression Visibility Wind Speed Wind Dir Waves Ship Positions

T/t Zenji

Last reported at 2016-Feb-14 20:28 UTC. Time now 2016-Feb-14 21:07 UTC.
Position N 18°31' W 064°25'.

Length 13 m.

Type: Pleasure craft. MMSI: 235007190.

Date/timePositionNaut miles runAvg speedWind from/ knotsBaromVisibWave heightAir tempDewpointWater temp
2016-Feb-14 20:28N 18°31' W 064°25'4 1.0
2016-Feb-14 16:20N 18°27' W 064°27'0 0.0
2016-Feb-14 15:14N 18°27' W 064°27'0 0.0
2016-Feb-14 12:26N 18°27' W 064°27'0 0.0
2016-Feb-14 11:32N 18°27' W 064°27'0 0.0
2016-Feb-14 10:12N 18°27' W 064°27'0 0.0
2016-Feb-14 09:24N 18°27' W 064°27'0 0.0
2016-Feb-14 07:06N 18°27' W 064°27'0 0.0
2016-Feb-14 06:30N 18°27' W 064°27'0 0.0
2016-Feb-14 02:30N 18°27' W 064°27'0 0.0
2016-Feb-14 00:24N 18°27' W 064°27'0 0.0
2016-Feb-13 23:24N 18°27' W 064°27'0 0.0
2016-Feb-13 22:33N 18°27' W 064°27'2 2.1
2016-Feb-13 21:33N 18°26' W 064°29'4 4.1
2016-Feb-13 20:33N 18°23' W 064°31'0 0.0
2016-Feb-13 19:31N 18°23' W 064°31'0 0.0
2016-Feb-13 18:31N 18°23' W 064°31'0 0.0
2016-Feb-13 17:25N 18°23' W 064°31'2 1.8
2016-Feb-13 16:33N 18°23' W 064°32'6 5.2
2016-Feb-13 15:21N 18°27' W 064°27'0 0.2
2016-Feb-13 14:04N 18°27' W 064°27'0 0.0
2016-Feb-13 11:16N 18°27' W 064°27'0 0.0
2016-Feb-13 09:16N 18°27' W 064°27'0 0.0
2016-Feb-13 08:22N 18°27' W 064°27'0 0.0
2016-Feb-13 02:20N 18°27' W 064°27'0 0.0
2016-Feb-13 01:26N 18°27' W 064°27'0 0.0
2016-Feb-12 23:08N 18°27' W 064°27'0 0.0
2016-Feb-12 22:26N 18°27' W 064°27'0 0.0
2016-Feb-12 17:07N 18°27' W 064°27'1 1.1
2016-Feb-12 16:28N 18°26' W 064°27'0 0.0
2016-Feb-12 15:16N 18°26' W 064°27'0 0.0
2016-Feb-12 14:28N 18°26' W 064°27'0 0.0
2016-Feb-12 13:28N 18°26' W 064°27'0 0.0
2016-Feb-12 12:28N 18°26' W 064°27'0 0.0
2016-Feb-12 11:28N 18°26' W 064°27'1 0.8
2016-Feb-12 10:28N 18°27' W 064°27'0 0.0
2016-Feb-12 07:16N 18°27' W 064°27'0 0.0
2016-Feb-12 06:22N 18°27' W 064°27'0 0.0
2016-Feb-12 04:33N 18°27' W 064°27'0 0.0
2016-Feb-12 03:31N 18°27' W 064°27'0 0.0
2016-Feb-12 02:33N 18°27' W 064°27'0 0.0
2016-Feb-12 01:32N 18°27' W 064°27'0 0.0
2016-Feb-12 00:33N 18°27' W 064°27'0 0.0
2016-Feb-11 23:33N 18°27' W 064°27'2 1.5
2016-Feb-11 22:33N 18°28' W 064°28'9 9.5
2016-Feb-11 21:33N 18°28' W 064°38'6 5.7
2016-Feb-11 20:33N 18°26' W 064°44'2 1.5
2016-Feb-11 19:30N 18°26' W 064°45'0 0.0
2016-Feb-11 18:30N 18°26' W 064°45'0 0.0
2016-Feb-11 17:33N 18°26' W 064°45'4 3.9
2016-Feb-11 16:33N 18°26' W 064°41'1310.2
2016-Feb-11 15:15N 18°27' W 064°27'0 0.1
2016-Feb-11 10:28N 18°27' W 064°27'0 0.0
2016-Feb-11 09:28N 18°27' W 064°27'0 0.0
2016-Feb-11 08:22N 18°27' W 064°27'0 0.0
2016-Feb-11 07:28N 18°27' W 064°27'0 0.0
2016-Feb-11 06:28N 18°27' W 064°27'0 0.0
2016-Feb-11 05:28N 18°27' W 064°27'0 0.0
2016-Feb-11 04:16N 18°27' W 064°27'0 0.0
2016-Feb-11 03:26N 18°27' W 064°27'0 0.0
2016-Feb-11 02:17N 18°27' W 064°27'0 0.0
2016-Feb-11 00:17N 18°27' W 064°27'0 0.0
2016-Feb-10 23:29N 18°27' W 064°27'0 0.0
2016-Feb-10 22:29N 18°27' W 064°27'0 0.0
2016-Feb-10 21:29N 18°27' W 064°27'0 0.0
2016-Feb-10 20:29N 18°27' W 064°27'0 0.0
2016-Feb-10 19:29N 18°27' W 064°27'0 0.0
2016-Feb-10 15:17N 18°27' W 064°27'0 0.0
2016-Feb-10 14:26N 18°27' W 064°27'0 0.0
2016-Feb-10 13:28N 18°27' W 064°27'0 0.0
2016-Feb-10 12:31N 18°27' W 064°27'1 0.7
2016-Feb-10 11:25N 18°26' W 064°27'0 0.0
2016-Feb-10 09:28N 18°26' W 064°27'0 0.0
2016-Feb-10 08:22N 18°26' W 064°27'0 0.0
2016-Feb-10 07:31N 18°26' W 064°27'0 0.0
2016-Feb-10 05:10N 18°26' W 064°27'0 0.0
2016-Feb-10 04:31N 18°26' W 064°27'0 0.0
2016-Feb-10 03:31N 18°26' W 064°27'0 0.0
2016-Feb-10 01:10N 18°26' W 064°27'0 0.0
2016-Feb-10 00:28N 18°26' W 064°27'0 0.0
2016-Feb-09 23:19N 18°26' W 064°27'0 0.0
2016-Feb-09 22:25N 18°26' W 064°27'0 0.0
2016-Feb-09 21:31N 18°26' W 064°27'0 0.0
2016-Feb-09 20:31N 18°26' W 064°27'0 0.0
2016-Feb-09 19:25N 18°26' W 064°27'0 0.0
2016-Feb-09 18:31N 18°26' W 064°27'0 0.0
2016-Feb-09 17:25N 18°26' W 064°27'0 0.0
2016-Feb-09 16:25N 18°26' W 064°27'0 0.0
2016-Feb-09 15:31N 18°26' W 064°27'0 0.0
2016-Feb-09 13:19N 18°26' W 064°27'1 0.1
2016-Feb-09 04:29N 18°27' W 064°27'0 0.0
2016-Feb-09 03:29N 18°27' W 064°27'0 0.0
2016-Feb-09 02:17N 18°27' W 064°27'0 0.0
2016-Feb-09 01:17N 18°27' W 064°27'0 0.0
2016-Feb-09 00:29N 18°27' W 064°27'0 0.0
2016-Feb-08 23:17N 18°27' W 064°27'0 0.0
2016-Feb-08 22:29N 18°27' W 064°27'0 0.0
2016-Feb-08 21:29N 18°27' W 064°27'1 0.8
2016-Feb-08 20:33N 18°26' W 064°27'0 0.0
2016-Feb-08 19:24N 18°26' W 064°27'0 0.0
2016-Feb-08 18:18N 18°26' W 064°27'0 0.0
2016-Feb-08 17:30N 18°26' W 064°27'0 0.0
2016-Feb-08 16:30N 18°26' W 064°27'0 0.0
2016-Feb-08 15:30N 18°26' W 064°27'0 0.0
2016-Feb-08 14:30N 18°26' W 064°27'0 0.0
2016-Feb-08 13:33N 18°26' W 064°27'1 0.6
2016-Feb-08 12:18N 18°27' W 064°27'0 0.0
2016-Feb-08 07:18N 18°27' W 064°27'0 0.0
2016-Feb-08 03:30N 18°27' W 064°27'0 0.0
2016-Feb-08 02:30N 18°27' W 064°27'0 0.0
2016-Feb-08 01:18N 18°27' W 064°27'4 4.8
2016-Feb-08 00:27N 18°23' W 064°27'  

Dump ship's entire track history